Time;durP1;ratioP1;P1;durP2;ratioP2;P2;SDS_P1;SDS_P2;PMS_P1;PMS_P2;Temp;Humidity;BMP_temperature;BMP_pressure;BME280_temperature;BME280_humidity;BME280_pressure;Samples;Min_cycle;Max_cycle;Signal;HPM_P1;HPM_P2
2022/04/06 03:01:54;;;;;;;;;;;;;;;7.69;100.00;97860.59;5508985;24;20280;-67
2022/04/06 03:04:21;;;;;;;;;;;;;;;7.79;100.00;97854.31;4827371;29;19953;-67
2022/04/06 03:06:48;;;;;;;;;;;;;;;7.81;100.00;97853.91;4826785;29;20336;-68
2022/04/06 03:09:15;;;;;;;;;;;;;;;7.87;100.00;97860.72;4828784;29;19957;-69
2022/04/06 03:11:43;;;;;;;;;;;;;;;7.82;100.00;97850.72;4830885;29;19950;-68
2022/04/06 03:14:10;;;;;;;;;;;;;;;7.79;100.00;97859.06;4823982;29;20336;-68
2022/04/06 03:16:37;;;;;;;;;;;;;;;7.77;100.00;97850.31;4823110;29;19952;-68
2022/04/06 03:19:05;;;;;;;;;;;;;;;7.72;100.00;97851.50;4827016;29;19953;-68
2022/04/06 03:21:32;;;;;;;;;;;;;;;7.52;100.00;97852.97;4828396;29;19964;-68
2022/04/06 03:24:00;;;;;;;;;;;;;;;7.35;100.00;97850.06;4819382;29;19954;-68
2022/04/06 03:26:27;;;;;;;;;;;;;;;7.25;100.00;97846.03;4814052;29;19956;-68
2022/04/06 03:28:54;;;;;;;;;;;;;;;7.12;100.00;97841.94;4822829;29;19956;-68
2022/04/06 03:31:21;;;;;;;;;;;;;;;7.02;100.00;97849.03;4821465;29;19974;-68
2022/04/06 03:33:49;;;;;;;;;;;;;;;6.98;100.00;97847.41;4829549;29;19959;-68
2022/04/06 03:36:16;;;;;;;;;;;;;;;6.97;100.00;97848.63;4816380;29;19960;-68
2022/04/06 03:38:44;;;;;;;;;;;;;;;7.00;100.00;97845.03;4829677;29;20336;-68
2022/04/06 03:41:12;;;;;;;;;;;;;;;7.09;100.00;97842.75;4828790;29;19961;-68
2022/04/06 03:43:39;;;;;;;;;;;;;;;7.08;100.00;97847.50;4817375;29;19955;-69
2022/04/06 03:46:07;;;;;;;;;;;;;;;6.97;100.00;97838.28;4818156;29;19963;-68
2022/04/06 03:48:34;;;;;;;;;;;;;;;6.88;100.00;97840.59;4822324;29;19955;-68
2022/04/06 03:51:01;;;;;;;;;;;;;;;6.84;100.00;97836.19;4829043;29;19969;-68
2022/04/06 03:53:29;;;;;;;;;;;;;;;6.75;100.00;97833.72;4816179;29;19953;-68
2022/04/06 03:55:56;;;;;;;;;;;;;;;6.73;100.00;97833.31;4826447;29;19959;-68
2022/04/06 03:58:23;;;;;;;;;;;;;;;6.77;100.00;97836.94;4821449;29;20233;-68
2022/04/06 04:00:51;;;;;;;;;;;;;;;6.84;100.00;97833.41;4821169;29;20253;-68
2022/04/06 04:03:18;;;;;;;;;;;;;;;6.79;100.00;97840.13;4822546;29;19980;-68
2022/04/06 04:05:45;;;;;;;;;;;;;;;6.74;100.00;97839.66;4825336;29;19959;-68
2022/04/06 04:08:12;;;;;;;;;;;;;;;6.64;100.00;97838.41;4825387;29;19956;-68
2022/04/06 04:10:40;;;;;;;;;;;;;;;6.63;100.00;97837.59;4822391;29;20350;-68
2022/04/06 04:13:07;;;;;;;;;;;;;;;6.65;100.00;97836.44;4821609;29;19951;-68
2022/04/06 04:15:34;;;;;;;;;;;;;;;6.62;100.00;97840.75;4814962;29;19953;-68
2022/04/06 04:18:02;;;;;;;;;;;;;;;6.56;100.00;97826.41;4827973;29;19954;-68
2022/04/06 04:20:29;;;;;;;;;;;;;;;6.48;100.00;97830.31;4837423;29;19961;-68
2022/04/06 04:22:56;;;;;;;;;;;;;;;6.46;100.00;97832.66;4827333;29;19953;-68
2022/04/06 04:25:23;;;;;;;;;;;;;;;6.47;100.00;97834.28;4828646;29;20362;-68
2022/04/06 04:27:50;;;;;;;;;;;;;;;6.47;100.00;97841.81;4818807;29;20258;-68
2022/04/06 04:30:19;;;;;;;;;;;;;;;6.51;100.00;97842.63;4820562;29;19969;-68
2022/04/06 04:32:46;;;;;;;;;;;;;;;6.55;100.00;97840.69;4818305;29;20362;-68
2022/04/06 04:35:14;;;;;;;;;;;;;;;6.61;100.00;97833.59;4819906;29;19956;-68
2022/04/06 04:37:41;;;;;;;;;;;;;;;6.66;100.00;97841.59;4821618;29;20271;-69
2022/04/06 04:40:09;;;;;;;;;;;;;;;6.71;100.00;97846.78;4816570;29;19967;-68
2022/04/06 04:42:36;;;;;;;;;;;;;;;6.67;100.00;97854.31;4822652;29;20276;-68
2022/04/06 04:45:04;;;;;;;;;;;;;;;6.65;100.00;97845.56;4820261;29;19957;-69
2022/04/06 04:47:32;;;;;;;;;;;;;;;6.61;100.00;97847.50;4824032;29;20199;-69
2022/04/06 04:49:59;;;;;;;;;;;;;;;6.58;100.00;97851.81;4813360;29;19986;-69
2022/04/06 04:52:28;;;;;;;;;;;;;;;6.41;100.00;97851.66;4818436;29;19951;-69
2022/04/06 04:54:55;;;;;;;;;;;;;;;6.32;100.00;97851.16;4819977;29;19952;-69
2022/04/06 04:57:22;;;;;;;;;;;;;;;6.28;100.00;97842.81;4822671;29;20225;-69
2022/04/06 04:59:52;;;;;;;;;;;;;;;6.29;100.00;97852.72;4827607;29;19953;-69
2022/04/06 05:02:19;;;;;;;;;;;;;;;6.31;100.00;97855.91;4824065;29;20400;-69
2022/04/06 05:04:46;;;;;;;;;;;;;;;6.31;100.00;97860.69;4822059;29;19963;-69
2022/04/06 05:07:14;;;;;;;;;;;;;;;6.37;100.00;97859.97;4825358;29;19956;-69
2022/04/06 05:09:41;;;;;;;;;;;;;;;6.61;100.00;97867.75;4825119;29;20396;-68
2022/04/06 05:12:08;;;;;;;;;;;;;;;6.93;100.00;97867.22;4812072;29;19971;-69
2022/04/06 05:14:36;;;;;;;;;;;;;;;7.15;100.00;97863.44;4810837;29;20310;-69
2022/04/06 05:17:03;;;;;;;;;;;;;;;7.39;100.00;97856.44;4827935;29;20371;-69
2022/04/06 05:19:30;;;;;;;;;;;;;;;7.73;100.00;97866.97;4826818;29;20333;-70
2022/04/06 05:21:59;;;;;;;;;;;;;;;8.13;100.00;97871.53;4828291;29;19960;-69
2022/04/06 05:24:26;;;;;;;;;;;;;;;8.93;100.00;97872.94;4827106;29;19953;-69
2022/04/06 05:26:54;;;;;;;;;;;;;;;9.61;100.00;97880.06;4827167;29;19958;-69
2022/04/06 05:29:21;;;;;;;;;;;;;;;10.52;100.00;97878.97;4828832;29;20247;-69
2022/04/06 05:31:48;;;;;;;;;;;;;;;11.51;97.18;97871.88;4827774;29;19981;-69
2022/04/06 05:34:16;;;;;;;;;;;;;;;12.32;88.44;97874.56;4828888;29;20243;-69
2022/04/06 05:36:43;;;;;;;;;;;;;;;13.42;81.72;97882.22;4829038;29;19952;-69
2022/04/06 05:39:11;;;;;;;;;;;;;;;14.48;73.69;97888.66;4828428;29;19951;-69
2022/04/06 05:41:38;;;;;;;;;;;;;;;15.52;66.87;97888.75;4825712;29;19964;-70
2022/04/06 05:44:05;;;;;;;;;;;;;;;16.16;60.62;97887.84;4816002;29;19951;-69
2022/04/06 05:46:33;;;;;;;;;;;;;;;17.31;54.26;97891.25;4827197;29;20343;-70
2022/04/06 05:49:00;;;;;;;;;;;;;;;18.15;50.12;97893.28;4809845;29;19954;-69
2022/04/06 05:51:27;;;;;;;;;;;;;;;19.21;46.83;97894.19;4828455;29;19971;-70
2022/04/06 05:53:55;;;;;;;;;;;;;;;20.04;44.79;97889.13;4827629;29;19955;-69
2022/04/06 05:56:22;;;;;;;;;;;;;;;20.92;40.80;97895.75;4827969;29;19955;-69
2022/04/06 05:58:49;;;;;;;;;;;;;;;21.82;38.68;97899.53;4828573;29;19957;-70
2022/04/06 06:01:16;;;;;;;;;;;;;;;22.53;35.41;97899.53;4827898;29;19951;-70
2022/04/06 06:03:44;;;;;;;;;;;;;;;23.08;33.30;97905.53;4827595;29;19952;-70
2022/04/06 06:06:11;;;;;;;;;;;;;;;23.47;31.98;97910.66;4826772;29;20349;-70
2022/04/06 06:08:38;;;;;;;;;;;;;;;24.24;31.69;97912.34;4825627;29;19962;-70
2022/04/06 06:11:05;;;;;;;;;;;;;;;24.97;30.65;97912.75;4825188;29;19972;-70
2022/04/06 06:13:33;;;;;;;;;;;;;;;25.18;29.37;97913.47;4827177;29;20289;-70
2022/04/06 06:16:00;;;;;;;;;;;;;;;25.62;29.10;97916.78;4827202;29;19954;-70
2022/04/06 06:18:28;;;;;;;;;;;;;;;26.53;27.49;97920.50;4838477;29;19964;-70
2022/04/06 06:21:00;;;;;;;;;;;;;;;26.70;26.89;97913.50;4829701;29;20265;-71
2022/04/06 06:23:29;;;;;;;;;;;;;;;27.34;26.33;97921.25;4845369;29;19963;-71
2022/04/06 06:25:56;;;;;;;;;;;;;;;27.59;25.73;97921.53;4845094;29;19956;-70
2022/04/06 06:28:24;;;;;;;;;;;;;;;28.00;25.78;97920.50;4844950;29;19962;-70
2022/04/06 06:30:51;;;;;;;;;;;;;;;28.42;24.91;97921.44;4826924;29;19978;-70
2022/04/06 06:33:18;;;;;;;;;;;;;;;28.39;25.00;97917.53;4827552;29;19957;-70
2022/04/06 06:35:48;;;;;;;;;;;;;;;27.97;25.65;97917.88;4827049;29;19965;-70
2022/04/06 06:38:16;;;;;;;;;;;;;;;26.93;26.82;97914.38;4826985;29;20259;-71
2022/04/06 06:40:43;;;;;;;;;;;;;;;25.48;28.09;97911.19;4826995;29;19954;-70
2022/04/06 06:43:10;;;;;;;;;;;;;;;23.70;29.57;97903.22;4824894;29;19963;-70
2022/04/06 06:45:38;;;;;;;;;;;;;;;22.23;32.79;97892.97;4830230;29;20376;-70
2022/04/06 06:48:05;;;;;;;;;;;;;;;21.00;35.88;97902.69;4816763;29;19957;-70
2022/04/06 06:50:33;;;;;;;;;;;;;;;20.08;39.05;97898.25;4814896;29;19948;-70
2022/04/06 06:53:00;;;;;;;;;;;;;;;19.38;43.33;97901.22;4820799;29;20375;-70
2022/04/06 06:55:27;;;;;;;;;;;;;;;18.76;44.39;97894.72;4812535;29;19954;-70
2022/04/06 06:57:55;;;;;;;;;;;;;;;18.15;46.29;97892.50;4819169;29;19953;-69
2022/04/06 07:00:22;;;;;;;;;;;;;;;17.89;47.52;97896.66;4848323;29;20219;-69
2022/04/06 07:02:49;;;;;;;;;;;;;;;17.64;47.84;97886.97;4848272;29;19980;-70
2022/04/06 07:05:16;;;;;;;;;;;;;;;17.33;50.24;97891.63;4838667;29;20340;-69
2022/04/06 07:08:02;;;;;;;;;;;;;;;17.17;51.26;97893.75;4830153;29;19964;-69
2022/04/06 07:10:29;;;;;;;;;;;;;;;17.00;52.79;97885.38;4829546;29;19955;-69
2022/04/06 07:12:57;;;;;;;;;;;;;;;16.72;54.30;97891.91;4829899;29;19981;-69
2022/04/06 07:15:24;;;;;;;;;;;;;;;16.62;55.46;97898.66;4829696;29;19967;-70
2022/04/06 07:17:52;;;;;;;;;;;;;;;16.65;54.66;97888.50;4814657;29;19947;-69
2022/04/06 07:20:20;;;;;;;;;;;;;;;16.73;54.92;97892.66;4829763;29;19950;-69
2022/04/06 07:22:47;;;;;;;;;;;;;;;16.75;52.79;97888.16;4829842;29;20275;-70
2022/04/06 07:25:15;;;;;;;;;;;;;;;16.55;55.13;97889.59;4829655;29;19960;-70
2022/04/06 07:27:42;;;;;;;;;;;;;;;16.39;55.98;97891.22;4829836;29;19965;-70
2022/04/06 07:30:11;;;;;;;;;;;;;;;16.18;58.06;97885.38;4828870;29;19959;-69
2022/04/06 07:32:38;;;;;;;;;;;;;;;16.55;56.77;97886.78;4829608;29;19981;-70
2022/04/06 07:35:06;;;;;;;;;;;;;;;16.71;56.62;97879.03;4829222;29;19961;-69
2022/04/06 07:37:37;;;;;;;;;;;;;;;16.90;56.05;97882.88;4829249;29;20253;-69
2022/04/06 07:40:05;;;;;;;;;;;;;;;16.84;57.85;97884.69;4828961;29;19961;-69
2022/04/06 07:42:33;;;;;;;;;;;;;;;16.74;62.03;97885.81;4829027;29;19956;-70
2022/04/06 07:45:04;;;;;;;;;;;;;;;16.26;61.24;97883.94;4828972;29;19955;-70
2022/04/06 07:47:31;;;;;;;;;;;;;;;16.06;63.33;97875.63;4829205;29;19957;-69
2022/04/06 07:50:03;;;;;;;;;;;;;;;15.72;67.91;97884.56;4828793;29;20359;-69
2022/04/06 07:52:31;;;;;;;;;;;;;;;15.58;69.47;97872.88;4833583;29;19976;-69
2022/04/06 07:54:58;;;;;;;;;;;;;;;15.19;69.71;97878.63;4847042;29;19954;-69
2022/04/06 07:57:25;;;;;;;;;;;;;;;14.91;73.94;97872.47;4834131;29;20249;-69
2022/04/06 07:59:56;;;;;;;;;;;;;;;15.05;72.61;97872.13;4829357;29;19956;-69
2022/04/06 08:02:23;;;;;;;;;;;;;;;14.64;75.99;97873.88;4829063;29;19980;-69
2022/04/06 08:04:51;;;;;;;;;;;;;;;14.61;78.76;97874.75;4844856;29;19959;-69
2022/04/06 08:07:18;;;;;;;;;;;;;;;14.43;79.44;97870.28;4828989;29;19952;-69
2022/04/06 08:09:45;;;;;;;;;;;;;;;14.55;81.39;97876.50;4829325;29;19955;-70
2022/04/06 08:12:13;;;;;;;;;;;;;;;14.43;81.01;97875.09;4829281;29;19978;-70
2022/04/06 08:14:40;;;;;;;;;;;;;;;14.54;78.74;97877.72;4829100;29;19992;-69
2022/04/06 08:17:07;;;;;;;;;;;;;;;14.41;79.06;97875.56;4829186;29;19955;-69
2022/04/06 08:19:34;;;;;;;;;;;;;;;14.04;81.98;97872.25;4829288;29;19948;-69
2022/04/06 08:22:02;;;;;;;;;;;;;;;14.23;82.45;97880.72;4829699;29;19964;-69
2022/04/06 08:24:31;;;;;;;;;;;;;;;14.10;84.32;97876.16;4829777;29;19962;-69
2022/04/06 08:26:59;;;;;;;;;;;;;;;14.28;82.47;97880.22;4828400;29;19959;-69
2022/04/06 08:29:26;;;;;;;;;;;;;;;14.54;79.46;97886.94;4828668;29;20320;-69
2022/04/06 08:31:54;;;;;;;;;;;;;;;14.40;82.38;97890.84;4829002;29;20368;-69
2022/04/06 08:34:21;;;;;;;;;;;;;;;14.40;80.17;97896.47;4829044;29;19954;-69
2022/04/06 08:36:48;;;;;;;;;;;;;;;14.38;80.69;97901.72;4828396;29;19950;-69
2022/04/06 08:39:16;;;;;;;;;;;;;;;14.64;79.60;97897.19;4827931;29;19961;-69
2022/04/06 08:41:43;;;;;;;;;;;;;;;14.88;78.46;97912.75;4829344;29;19949;-69
2022/04/06 08:44:10;;;;;;;;;;;;;;;15.06;78.36;97909.53;4810495;29;19948;-69
2022/04/06 08:46:40;;;;;;;;;;;;;;;15.18;77.42;97906.03;4811485;29;19958;-69
2022/04/06 08:49:08;;;;;;;;;;;;;;;14.80;81.48;97908.50;4826705;29;19968;-69
2022/04/06 08:51:36;;;;;;;;;;;;;;;14.68;85.00;97905.53;4829050;29;19949;-69
2022/04/06 08:54:04;;;;;;;;;;;;;;;14.50;86.88;97907.94;4828465;29;19984;-69
2022/04/06 08:56:31;;;;;;;;;;;;;;;14.85;89.73;97907.97;4825905;29;19961;-70
2022/04/06 08:59:00;;;;;;;;;;;;;;;14.42;86.55;97901.69;4817973;29;19948;-69
2022/04/06 09:01:31;;;;;;;;;;;;;;;14.15;91.14;97903.78;4827920;29;19980;-69
2022/04/06 09:03:59;;;;;;;;;;;;;;;13.74;94.47;97904.16;4812932;29;19954;-69
2022/04/06 09:06:42;;;;;;;;;;;;;;;13.71;92.39;97908.63;4809377;29;20257;-69
2022/04/06 09:09:10;;;;;;;;;;;;;;;13.22;94.37;97901.00;4810158;29;19945;-69
2022/04/06 09:11:44;;;;;;;;;;;;;;;13.22;100.00;97912.25;4810027;29;19962;-69
2022/04/06 09:14:12;;;;;;;;;;;;;;;13.35;100.00;97904.78;4809689;29;19963;-70
2022/04/06 09:16:39;;;;;;;;;;;;;;;13.58;100.00;97901.22;4828736;29;19978;-69
2022/04/06 09:19:11;;;;;;;;;;;;;;;13.42;100.00;97906.72;4827536;29;19955;-69
2022/04/06 09:21:41;;;;;;;;;;;;;;;13.73;96.57;97906.16;4827928;29;19956;-69
2022/04/06 09:24:15;;;;;;;;;;;;;;;13.59;95.35;97898.00;4827773;29;19953;-69
2022/04/06 09:26:43;;;;;;;;;;;;;;;13.13;100.00;97898.72;4827888;29;19959;-69
2022/04/06 09:29:10;;;;;;;;;;;;;;;12.95;100.00;97898.19;4827405;29;19953;-69
2022/04/06 09:31:39;;;;;;;;;;;;;;;12.79;100.00;97895.19;4828546;29;19960;-69
2022/04/06 09:34:09;;;;;;;;;;;;;;;12.69;100.00;97895.34;4840894;29;19975;-69
2022/04/06 09:36:38;;;;;;;;;;;;;;;12.40;100.00;97890.09;4846567;29;19950;-69
2022/04/06 09:39:07;;;;;;;;;;;;;;;12.50;100.00;97891.19;4844942;29;19952;-69
2022/04/06 09:41:54;;;;;;;;;;;;;;;12.63;100.00;97888.63;4846090;29;19952;-70
2022/04/06 09:50:08;;;;;;;;;;;;;;;13.09;100.00;97871.94;4826975;29;19961;-69
2022/04/06 09:52:39;;;;;;;;;;;;;;;13.27;100.00;97874.47;4827308;29;19975;-69
2022/04/06 09:55:07;;;;;;;;;;;;;;;13.56;100.00;97867.13;4828243;29;19947;-69
2022/04/06 09:57:45;;;;;;;;;;;;;;;13.46;100.00;97857.69;4827205;29;19956;-69
2022/04/06 10:00:16;;;;;;;;;;;;;;;13.43;100.00;97849.31;4827050;29;19956;-69
2022/04/06 10:02:49;;;;;;;;;;;;;;;12.75;100.00;97851.56;4827345;29;20387;-69
2022/04/06 10:05:17;;;;;;;;;;;;;;;13.14;100.00;97851.81;4811922;29;19960;-69
2022/04/06 10:07:45;;;;;;;;;;;;;;;13.19;100.00;97840.09;4827608;29;20261;-69
2022/04/06 10:10:13;;;;;;;;;;;;;;;13.18;100.00;97832.88;4827281;29;19962;-69
2022/04/06 10:12:40;;;;;;;;;;;;;;;12.92;100.00;97830.88;4827366;29;19969;-69
2022/04/06 10:15:25;;;;;;;;;;;;;;;13.09;100.00;97827.00;4809357;29;20328;-69
2022/04/06 10:17:53;;;;;;;;;;;;;;;13.16;100.00;97826.91;4827942;29;20249;-69
2022/04/06 10:20:20;;;;;;;;;;;;;;;12.78;100.00;97825.47;4831371;29;19978;-69
2022/04/06 10:22:52;;;;;;;;;;;;;;;12.87;100.00;97815.31;4830613;29;19975;-69
2022/04/06 10:25:30;;;;;;;;;;;;;;;12.65;100.00;97816.84;4830902;29;19978;-69
2022/04/06 10:27:59;;;;;;;;;;;;;;;12.52;100.00;97811.03;4830749;29;19957;-69
2022/04/06 10:30:28;;;;;;;;;;;;;;;12.32;100.00;97809.31;4831037;29;19954;-69
2022/04/06 10:32:58;;;;;;;;;;;;;;;12.11;100.00;97815.19;4830583;29;19973;-69
2022/04/06 10:35:26;;;;;;;;;;;;;;;12.26;100.00;97820.19;4831173;29;20332;-69
2022/04/06 10:38:13;;;;;;;;;;;;;;;12.42;100.00;97817.56;4830723;29;20374;-69
2022/04/06 10:40:43;;;;;;;;;;;;;;;12.21;100.00;97817.88;4830995;29;20239;-69
2022/04/06 10:43:29;;;;;;;;;;;;;;;12.13;100.00;97813.56;4830310;29;19982;-69
2022/04/06 10:45:59;;;;;;;;;;;;;;;12.21;100.00;97803.06;4829524;29;20359;-69
2022/04/06 10:48:26;;;;;;;;;;;;;;;12.19;100.00;97799.88;4830835;29;19948;-69
2022/04/06 10:51:13;;;;;;;;;;;;;;;11.98;100.00;97803.75;4830011;29;20370;-69
2022/04/06 10:53:41;;;;;;;;;;;;;;;12.12;100.00;97802.78;4830699;29;19975;-69
2022/04/06 10:56:17;;;;;;;;;;;;;;;12.10;100.00;97796.81;4814358;29;19956;-69
2022/04/06 10:59:05;;;;;;;;;;;;;;;12.25;100.00;97787.75;4830822;29;19945;-69
2022/04/06 11:01:33;;;;;;;;;;;;;;;12.27;100.00;97788.16;4830551;29;20269;-69
2022/04/06 11:04:15;;;;;;;;;;;;;;;12.27;100.00;97774.16;4830687;29;19959;-69
2022/04/06 11:06:48;;;;;;;;;;;;;;;12.09;100.00;97789.59;4830609;29;20262;-69
2022/04/06 11:12:11;;;;;;;;;;;;;;;12.04;100.00;97779.66;4830548;29;19951;-69
2022/04/06 11:14:39;;;;;;;;;;;;;;;11.86;100.00;97779.88;4830062;29;19981;-69
2022/04/06 11:17:42;;;;;;;;;;;;;;;12.09;100.00;97772.78;4829914;29;20370;-69
2022/04/06 11:20:11;;;;;;;;;;;;;;;11.71;100.00;97763.66;4773953;29;20273;-69
2022/04/06 11:22:43;;;;;;;;;;;;;;;11.67;100.00;97760.06;4811600;29;19963;-69
2022/04/06 11:25:12;;;;;;;;;;;;;;;11.98;100.00;97760.94;4821237;29;19951;-69
2022/04/06 11:27:40;;;;;;;;;;;;;;;12.36;100.00;97751.97;4830294;29;19968;-69
2022/04/06 11:30:14;;;;;;;;;;;;;;;12.35;100.00;97741.97;4828878;29;20356;-69
2022/04/06 11:32:44;;;;;;;;;;;;;;;12.49;100.00;97743.78;4829739;29;19959;-69
2022/04/06 11:35:13;;;;;;;;;;;;;;;12.56;100.00;97745.69;4829611;29;19952;-70
2022/04/06 11:37:42;;;;;;;;;;;;;;;12.67;100.00;97740.69;4829211;29;19952;-69
2022/04/06 11:40:10;;;;;;;;;;;;;;;12.58;100.00;97744.03;4818472;29;19985;-69
2022/04/06 11:42:37;;;;;;;;;;;;;;;12.41;100.00;97748.69;4811319;29;19962;-69
2022/04/06 11:45:05;;;;;;;;;;;;;;;12.45;100.00;97743.03;4811373;29;19962;-69
2022/04/06 11:47:34;;;;;;;;;;;;;;;12.78;100.00;97741.31;4811365;29;19957;-69
2022/04/06 11:50:05;;;;;;;;;;;;;;;12.59;100.00;97740.03;4810937;29;19957;-69
2022/04/06 11:52:34;;;;;;;;;;;;;;;12.90;100.00;97735.09;4825692;29;19959;-69
2022/04/06 11:55:02;;;;;;;;;;;;;;;12.88;100.00;97731.94;4829402;29;19979;-69
2022/04/06 11:57:36;;;;;;;;;;;;;;;12.99;100.00;97724.09;4829938;29;19957;-69
2022/04/06 12:00:04;;;;;;;;;;;;;;;12.86;100.00;97728.75;4829365;29;19955;-69
2022/04/06 12:02:46;;;;;;;;;;;;;;;13.23;100.00;97730.53;4828869;29;20266;-69
2022/04/06 12:05:14;;;;;;;;;;;;;;;13.36;100.00;97720.25;4829784;29;20416;-69
2022/04/06 12:07:41;;;;;;;;;;;;;;;13.05;100.00;97714.78;4829595;29;19951;-69
2022/04/06 12:10:08;;;;;;;;;;;;;;;13.01;100.00;97721.66;4829329;29;19952;-70
2022/04/06 12:12:36;;;;;;;;;;;;;;;12.87;100.00;97711.50;4829063;29;19954;-70
2022/04/06 12:15:06;;;;;;;;;;;;;;;13.28;100.00;97705.56;4827733;29;19996;-69
2022/04/06 12:17:34;;;;;;;;;;;;;;;13.46;100.00;97711.63;4823230;29;20258;-69
2022/04/06 12:20:02;;;;;;;;;;;;;;;13.24;100.00;97701.22;4828389;29;19953;-69
2022/04/06 12:22:30;;;;;;;;;;;;;;;13.40;100.00;97690.88;4826425;29;19956;-69
2022/04/06 12:24:57;;;;;;;;;;;;;;;13.62;100.00;97694.84;4825686;29;19954;-69
2022/04/06 12:27:28;;;;;;;;;;;;;;;13.39;100.00;97686.50;4825487;29;19954;-69
2022/04/06 12:30:04;;;;;;;;;;;;;;;13.54;100.00;97682.19;4828206;29;19980;-69
2022/04/06 12:32:41;;;;;;;;;;;;;;;13.33;100.00;97679.78;4825664;29;19951;-69
2022/04/06 12:35:18;;;;;;;;;;;;;;;13.20;100.00;97678.84;4820631;29;19968;-70
2022/04/06 12:37:46;;;;;;;;;;;;;;;13.41;100.00;97670.00;4825477;29;20349;-69
2022/04/06 12:40:23;;;;;;;;;;;;;;;13.49;100.00;97674.25;4824923;29;19955;-69
2022/04/06 12:42:50;;;;;;;;;;;;;;;13.44;100.00;97666.34;4828580;29;19960;-69
2022/04/06 12:45:21;;;;;;;;;;;;;;;13.46;100.00;97657.47;4813129;29;19955;-69
2022/04/06 12:47:48;;;;;;;;;;;;;;;13.36;100.00;97648.03;4833157;29;19953;-69
2022/04/06 12:50:19;;;;;;;;;;;;;;;13.68;100.00;97650.97;4835040;29;20334;-69
2022/04/06 12:53:02;;;;;;;;;;;;;;;13.69;100.00;97646.16;4824064;29;19979;-69
2022/04/06 12:55:30;;;;;;;;;;;;;;;13.89;100.00;97632.06;4826896;29;19972;-69
2022/04/06 12:58:16;;;;;;;;;;;;;;;13.60;100.00;97623.44;4826007;29;19953;-69
2022/04/06 13:00:43;;;;;;;;;;;;;;;13.77;100.00;97617.44;4817103;29;19952;-70
2022/04/06 13:03:11;;;;;;;;;;;;;;;13.90;100.00;97620.38;4824358;29;20357;-69
2022/04/06 13:05:38;;;;;;;;;;;;;;;13.87;100.00;97606.41;4810049;29;20645;-70
2022/04/06 13:08:05;;;;;;;;;;;;;;;13.90;100.00;97603.50;4827639;29;20232;-69
2022/04/06 13:10:34;;;;;;;;;;;;;;;13.99;100.00;97602.91;4825426;29;19959;-69
2022/04/06 13:13:01;;;;;;;;;;;;;;;13.86;100.00;97600.00;4826914;29;19960;-69
2022/04/06 13:15:30;;;;;;;;;;;;;;;13.79;100.00;97592.50;4816791;29;19976;-69
2022/04/06 13:17:57;;;;;;;;;;;;;;;13.77;100.00;97582.94;4817085;29;19956;-69
2022/04/06 13:20:24;;;;;;;;;;;;;;;14.00;100.00;97584.81;4827681;29;19956;-69
2022/04/06 13:22:52;;;;;;;;;;;;;;;13.78;100.00;97590.16;4811200;29;19958;-69
2022/04/06 13:25:19;;;;;;;;;;;;;;;13.70;100.00;97583.91;4826983;29;20336;-69
2022/04/06 13:27:47;;;;;;;;;;;;;;;13.60;100.00;97578.50;4811446;29;19961;-69
2022/04/06 13:30:15;;;;;;;;;;;;;;;13.73;100.00;97568.97;4823454;29;19959;-69
2022/04/06 13:32:44;;;;;;;;;;;;;;;13.67;100.00;97564.28;4820215;29;20338;-69
2022/04/06 13:35:12;;;;;;;;;;;;;;;13.51;100.00;97570.69;4845435;29;19970;-69
2022/04/06 13:37:39;;;;;;;;;;;;;;;13.58;100.00;97567.72;4836699;29;19959;-69
2022/04/06 13:40:07;;;;;;;;;;;;;;;13.67;100.00;97553.06;4823170;29;20260;-69
2022/04/06 13:42:34;;;;;;;;;;;;;;;13.55;100.00;97548.91;4819968;29;19952;-69
2022/04/06 13:45:04;;;;;;;;;;;;;;;13.69;100.00;97550.63;4819902;29;20268;-69
2022/04/06 13:47:31;;;;;;;;;;;;;;;13.52;100.00;97535.75;4824437;29;19959;-69
2022/04/06 13:49:58;;;;;;;;;;;;;;;13.62;100.00;97536.75;4825352;29;19985;-69
2022/04/06 13:52:26;;;;;;;;;;;;;;;13.76;100.00;97525.16;4821675;29;19960;-69
2022/04/06 13:54:53;;;;;;;;;;;;;;;13.56;100.00;97530.84;4826835;29;20401;-69
2022/04/06 13:57:21;;;;;;;;;;;;;;;13.54;100.00;97518.47;4826974;29;19951;-69
2022/04/06 13:59:48;;;;;;;;;;;;;;;13.58;100.00;97519.97;4809562;29;19952;-69
2022/04/06 14:02:16;;;;;;;;;;;;;;;13.63;100.00;97504.59;4817418;29;19971;-70
2022/04/06 14:04:44;;;;;;;;;;;;;;;13.58;100.00;97499.50;4824475;29;20338;-70
2022/04/06 14:07:11;;;;;;;;;;;;;;;13.70;100.00;97496.78;4815975;29;20269;-69
2022/04/06 14:09:38;;;;;;;;;;;;;;;13.67;100.00;97508.09;4828684;29;19954;-69
2022/04/06 14:12:06;;;;;;;;;;;;;;;13.70;100.00;97504.44;4826840;29;19956;-69
2022/04/06 14:14:34;;;;;;;;;;;;;;;13.87;100.00;97499.59;4818906;29;19971;-70
2022/04/06 14:17:01;;;;;;;;;;;;;;;13.92;100.00;97504.69;4817351;29;19961;-70
2022/04/06 14:19:30;;;;;;;;;;;;;;;13.90;100.00;97501.53;4825803;29;19963;-69
2022/04/06 14:21:58;;;;;;;;;;;;;;;13.99;100.00;97496.09;4825348;29;19960;-69
2022/04/06 14:24:25;;;;;;;;;;;;;;;14.13;100.00;97492.94;4822623;29;19959;-69
2022/04/06 14:26:52;;;;;;;;;;;;;;;14.17;100.00;97482.38;4804629;29;19960;-68
2022/04/06 14:29:20;;;;;;;;;;;;;;;14.19;100.00;97480.72;4826943;29;19951;-69
2022/04/06 14:31:47;;;;;;;;;;;;;;;14.24;100.00;97479.38;4824017;29;19963;-69
2022/04/06 14:34:15;;;;;;;;;;;;;;;14.13;100.00;97484.50;4819497;29;19973;-70
2022/04/06 14:36:42;;;;;;;;;;;;;;;14.21;100.00;97474.63;4821828;29;19957;-70
2022/04/06 14:39:10;;;;;;;;;;;;;;;14.16;100.00;97475.16;4806862;29;20289;-70
2022/04/06 14:41:38;;;;;;;;;;;;;;;14.08;100.00;97468.16;4819267;29;19957;-70
2022/04/06 14:44:05;;;;;;;;;;;;;;;14.25;100.00;97464.91;4821749;29;19959;-70
2022/04/06 14:46:33;;;;;;;;;;;;;;;14.05;100.00;97463.41;4814480;29;20230;-70
2022/04/06 14:49:00;;;;;;;;;;;;;;;13.89;100.00;97452.97;4816185;29;19959;-70
2022/04/06 14:51:27;;;;;;;;;;;;;;;13.93;100.00;97461.31;4822002;29;20226;-70
2022/04/06 14:53:54;;;;;;;;;;;;;;;13.98;100.00;97463.59;4822949;29;19954;-70
2022/04/06 14:56:22;;;;;;;;;;;;;;;13.75;100.00;97456.94;4822834;29;19966;-70
2022/04/06 14:58:49;;;;;;;;;;;;;;;13.79;100.00;97454.81;4825297;29;19957;-70
2022/04/06 15:01:16;;;;;;;;;;;;;;;13.90;100.00;97457.38;4825400;29;19960;-70
2022/04/06 15:03:44;;;;;;;;;;;;;;;14.09;100.00;97452.84;4826549;29;19953;-69
2022/04/06 15:06:11;;;;;;;;;;;;;;;13.78;100.00;97452.47;4826478;29;20341;-69
2022/04/06 15:08:40;;;;;;;;;;;;;;;13.84;100.00;97447.88;4824044;29;20247;-69
2022/04/06 15:11:07;;;;;;;;;;;;;;;13.95;100.00;97439.97;4828259;29;19953;-70
2022/04/06 15:13:34;;;;;;;;;;;;;;;13.95;100.00;97448.41;4829269;29;20375;-70
2022/04/06 15:16:02;;;;;;;;;;;;;;;13.74;100.00;97441.28;4828606;29;19975;-70
2022/04/06 15:18:29;;;;;;;;;;;;;;;13.96;100.00;97438.75;4827750;29;19953;-69
2022/04/06 15:20:56;;;;;;;;;;;;;;;14.02;100.00;97439.78;4825350;29;20346;-70
2022/04/06 15:23:24;;;;;;;;;;;;;;;14.03;100.00;97437.78;4824593;29;20358;-70
2022/04/06 15:25:51;;;;;;;;;;;;;;;14.06;100.00;97434.09;4826088;29;19957;-70
2022/04/06 15:28:19;;;;;;;;;;;;;;;13.99;100.00;97440.66;4827308;29;19958;-69
2022/04/06 15:30:46;;;;;;;;;;;;;;;14.03;100.00;97440.59;4825602;29;21613;-69
2022/04/06 15:33:14;;;;;;;;;;;;;;;14.05;100.00;97435.31;4826942;29;19953;-70
2022/04/06 15:38:29;;;;;;;;;;;;;;;13.87;100.00;97434.97;4824650;29;19948;-69
2022/04/06 15:40:56;;;;;;;;;;;;;;;13.84;100.00;97423.38;4824277;29;20228;-69
2022/04/06 15:43:23;;;;;;;;;;;;;;;14.02;100.00;97436.19;4826480;29;20262;-69
2022/04/06 15:45:51;;;;;;;;;;;;;;;13.69;100.00;97430.59;4827529;29;19959;-70
2022/04/06 15:48:19;;;;;;;;;;;;;;;13.84;100.00;97420.56;4826425;29;19955;-70
2022/04/06 15:50:49;;;;;;;;;;;;;;;13.83;100.00;97415.41;4827469;29;19961;-69
2022/04/06 15:53:17;;;;;;;;;;;;;;;13.90;100.00;97420.84;4827004;29;20247;-69
2022/04/06 15:55:45;;;;;;;;;;;;;;;13.81;100.00;97415.81;4825246;29;20371;-70
2022/04/06 15:58:15;;;;;;;;;;;;;;;13.88;100.00;97420.50;4828741;29;19959;-71
2022/04/06 16:00:42;;;;;;;;;;;;;;;13.82;100.00;97411.78;4828471;29;19962;-71